KCSG

Columbus Airport

Columbus, Georgia, USA
METAR KCSG 201851Z 36007KT 9SM BKN018 BKN027 OVC100 22/20 A2999 RMK AO2 WSHFT 1752 RAB1757E37 SLP152 P0021 T02170200 $
Observed Flight Rules
Oct-20 @ 18:51 UTC (an hour ago) Marginal Visual Flight Rules
Wind Visibility Clouds
360° at 7 knots 9 miles
  • Broken at 1,800' AGL
  • Broken at 2,700' AGL
  • Overcast at 10,000' AGL
Temperatures Readings Precipitation
Current 22°C / 72°F
Dewpoint 20°C / 68°F
Humidity 88%
Altimeter 29.99" Hg
Pressure 1015.2 hPa
Elevation 135
Current Rain 0.21
METAR KCSG 201851Z 36007KT 9SM BKN018 BKN027 OVC100 22/20 A2999 RMK AO2 WSHFT 1752 RAB1757E37 SLP152 P0021 T02170200 $
Observed Flight Rules
Oct-20 @ 18:51 UTC
(an hour ago)
MVFR
Wind Visibility
360° at 7 knots 9 miles
Clouds
  • Broken at 1,800' AGL
  • Broken at 2,700' AGL
  • Overcast at 10,000' AGL
Temperature Dewpoint
22°C / 72°F 20°C / 68°F
Humidity Altimeter Pressure
88% 29.99" Hg 1015.2 hPa
Current Rain
0.21